sensor_id;sensor_type;location;lat;lon;timestamp;pressure;altitude;pressure_sealevel;temperature;humidity
8069;BME280;4077;43.702;24.896;2023-08-01T00:01:48;98963.50;;;18.05;100.00
8069;BME280;4077;43.702;24.896;2023-08-01T00:04:14;98972.88;;;18.11;100.00
8069;BME280;4077;43.702;24.896;2023-08-01T00:06:39;98966.06;;;18.07;100.00
8069;BME280;4077;43.702;24.896;2023-08-01T00:09:05;98964.34;;;18.06;100.00
8069;BME280;4077;43.702;24.896;2023-08-01T00:11:30;98955.69;;;18.03;100.00
8069;BME280;4077;43.702;24.896;2023-08-01T00:13:56;98955.69;;;18.03;100.00
8069;BME280;4077;43.702;24.896;2023-08-01T00:16:21;98959.19;;;18.02;100.00
8069;BME280;4077;43.702;24.896;2023-08-01T00:18:47;98954.06;;;17.99;100.00
8069;BME280;4077;43.702;24.896;2023-08-01T00:21:12;98958.53;;;17.94;100.00
8069;BME280;4077;43.702;24.896;2023-08-01T00:23:38;98956.63;;;18.01;100.00
8069;BME280;4077;43.702;24.896;2023-08-01T00:26:03;98955.59;;;18.07;100.00
8069;BME280;4077;43.702;24.896;2023-08-01T00:28:32;98945.97;;;18.09;100.00
8069;BME280;4077;43.702;24.896;2023-08-01T00:31:08;98938.28;;;18.02;100.00
8069;BME280;4077;43.702;24.896;2023-08-01T00:33:36;98940.09;;;18.00;100.00
8069;BME280;4077;43.702;24.896;2023-08-01T00:36:02;98920.41;;;17.89;100.00
8069;BME280;4077;43.702;24.896;2023-08-01T00:38:28;98935.00;;;17.96;100.00
8069;BME280;4077;43.702;24.896;2023-08-01T00:40:54;98939.31;;;17.97;100.00
8069;BME280;4077;43.702;24.896;2023-08-01T00:43:20;98941.94;;;17.97;100.00
8069;BME280;4077;43.702;24.896;2023-08-01T00:45:46;98943.63;;;17.99;100.00
8069;BME280;4077;43.702;24.896;2023-08-01T00:48:12;98945.28;;;18.02;100.00
8069;BME280;4077;43.702;24.896;2023-08-01T00:50:38;98941.91;;;17.98;100.00
8069;BME280;4077;43.702;24.896;2023-08-01T00:53:04;98941.03;;;17.98;100.00
8069;BME280;4077;43.702;24.896;2023-08-01T00:55:32;98934.88;;;18.00;100.00
8069;BME280;4077;43.702;24.896;2023-08-01T00:57:58;98937.56;;;17.97;100.00
8069;BME280;4077;43.702;24.896;2023-08-01T01:00:23;98935.91;;;17.95;100.00
8069;BME280;4077;43.702;24.896;2023-08-01T01:02:49;98934.25;;;17.92;100.00
8069;BME280;4077;43.702;24.896;2023-08-01T01:05:14;98919.47;;;17.91;100.00
8069;BME280;4077;43.702;24.896;2023-08-01T01:07:41;98919.53;;;17.88;100.00
8069;BME280;4077;43.702;24.896;2023-08-01T01:10:07;98915.97;;;17.92;100.00
8069;BME280;4077;43.702;24.896;2023-08-01T01:12:32;98925.56;;;17.92;100.00
8069;BME280;4077;43.702;24.896;2023-08-01T01:14:57;98919.47;;;17.91;100.00
8069;BME280;4077;43.702;24.896;2023-08-01T01:17:23;98919.50;;;17.90;100.00
8069;BME280;4077;43.702;24.896;2023-08-01T01:19:48;98913.56;;;17.85;100.00
8069;BME280;4077;43.702;24.896;2023-08-01T01:22:15;98914.41;;;17.85;100.00
8069;BME280;4077;43.702;24.896;2023-08-01T01:24:42;98914.41;;;17.85;100.00
8069;BME280;4077;43.702;24.896;2023-08-01T01:27:08;98896.31;;;17.79;100.00
8069;BME280;4077;43.702;24.896;2023-08-01T01:29:35;98904.91;;;17.83;100.00
8069;BME280;4077;43.702;24.896;2023-08-01T01:32:01;98904.03;;;17.82;100.00
8069;BME280;4077;43.702;24.896;2023-08-01T01:34:29;98907.47;;;17.84;100.00
8069;BME280;4077;43.702;24.896;2023-08-01T01:36:55;98911.13;;;17.77;100.00
8069;BME280;4077;43.702;24.896;2023-08-01T01:39:20;98897.28;;;17.75;100.00
8069;BME280;4077;43.702;24.896;2023-08-01T01:41:46;98901.59;;;17.76;100.00
8069;BME280;4077;43.702;24.896;2023-08-01T01:44:12;98899.94;;;17.73;100.00
8069;BME280;4077;43.702;24.896;2023-08-01T01:46:37;98883.44;;;17.70;100.00
8069;BME280;4077;43.702;24.896;2023-08-01T01:49:03;98899.13;;;17.70;100.00
8069;BME280;4077;43.702;24.896;2023-08-01T01:51:31;98900.00;;;17.69;100.00
8069;BME280;4077;43.702;24.896;2023-08-01T01:53:56;98885.69;;;17.53;100.00
8069;BME280;4077;43.702;24.896;2023-08-01T01:56:22;98900.28;;;17.60;100.00
8069;BME280;4077;43.702;24.896;2023-08-01T01:58:47;98906.38;;;17.59;100.00
8069;BME280;4077;43.702;24.896;2023-08-01T02:01:13;98903.72;;;17.60;100.00
8069;BME280;4077;43.702;24.896;2023-08-01T02:03:38;98908.84;;;17.63;100.00
8069;BME280;4077;43.702;24.896;2023-08-01T02:06:04;98913.31;;;17.60;100.00
8069;BME280;4077;43.702;24.896;2023-08-01T02:08:30;98918.38;;;17.66;100.00
8069;BME280;4077;43.702;24.896;2023-08-01T02:10:55;98918.38;;;17.66;100.00
8069;BME280;4077;43.702;24.896;2023-08-01T02:13:24;98919.31;;;17.63;100.00
8069;BME280;4077;43.702;24.896;2023-08-01T02:15:49;98917.63;;;17.61;100.00
8069;BME280;4077;43.702;24.896;2023-08-01T02:18:15;98919.50;;;17.57;100.00
8069;BME280;4077;43.702;24.896;2023-08-01T02:20:40;98925.72;;;17.52;100.00
8069;BME280;4077;43.702;24.896;2023-08-01T02:23:05;98926.63;;;17.49;100.00
8069;BME280;4077;43.702;24.896;2023-08-01T02:25:31;98929.28;;;17.47;100.00
8069;BME280;4077;43.702;24.896;2023-08-01T02:27:56;98937.94;;;17.49;100.00
8069;BME280;4077;43.702;24.896;2023-08-01T02:30:22;98939.72;;;17.47;100.00
8069;BME280;4077;43.702;24.896;2023-08-01T02:32:47;98933.84;;;17.39;100.00
8069;BME280;4077;43.702;24.896;2023-08-01T02:35:13;98936.38;;;17.42;100.00
8069;BME280;4077;43.702;24.896;2023-08-01T02:37:38;98939.97;;;17.38;100.00
8069;BME280;4077;43.702;24.896;2023-08-01T02:40:04;98937.41;;;17.35;100.00
8069;BME280;4077;43.702;24.896;2023-08-01T02:42:32;98943.59;;;17.33;100.00
8069;BME280;4077;43.702;24.896;2023-08-01T02:44:58;98945.44;;;17.28;100.00
8069;BME280;4077;43.702;24.896;2023-08-01T02:47:23;98946.28;;;17.28;100.00
8069;BME280;4077;43.702;24.896;2023-08-01T02:49:48;98942.91;;;17.25;100.00
8069;BME280;4077;43.702;24.896;2023-08-01T02:52:14;98945.56;;;17.23;100.00
8069;BME280;4077;43.702;24.896;2023-08-01T02:54:39;98949.03;;;17.22;100.00
8069;BME280;4077;43.702;24.896;2023-08-01T02:57:05;98938.84;;;17.13;100.00
8069;BME280;4077;43.702;24.896;2023-08-01T02:59:31;98947.84;;;17.00;100.00
8069;BME280;4077;43.702;24.896;2023-08-01T03:01:58;98939.94;;;17.04;100.00
8069;BME280;4077;43.702;24.896;2023-08-01T03:04:24;98951.88;;;17.13;100.00
8069;BME280;4077;43.702;24.896;2023-08-01T03:06:49;98949.22;;;17.16;100.00
8069;BME280;4077;43.702;24.896;2023-08-01T03:09:15;98949.09;;;17.20;100.00
8069;BME280;4077;43.702;24.896;2023-08-01T03:11:41;98944.81;;;17.18;100.00
8069;BME280;4077;43.702;24.896;2023-08-01T03:14:06;98949.22;;;17.16;100.00
8069;BME280;4077;43.702;24.896;2023-08-01T03:16:32;98952.63;;;17.18;100.00
8069;BME280;4077;43.702;24.896;2023-08-01T03:18:58;98959.72;;;17.13;100.00
8069;BME280;4077;43.702;24.896;2023-08-01T03:21:34;98961.38;;;17.17;100.00
8069;BME280;4077;43.702;24.896;2023-08-01T03:24:00;98947.47;;;17.16;100.00
8069;BME280;4077;43.702;24.896;2023-08-01T03:26:26;98968.06;;;17.27;100.00
8069;BME280;4077;43.702;24.896;2023-08-01T03:28:54;98972.38;;;17.28;100.00
8069;BME280;4077;43.702;24.896;2023-08-01T03:31:20;98971.56;;;17.26;100.00
8069;BME280;4077;43.702;24.896;2023-08-01T03:33:45;98975.06;;;17.25;100.00
8069;BME280;4077;43.702;24.896;2023-08-01T03:36:11;98976.81;;;17.25;100.00
8069;BME280;4077;43.702;24.896;2023-08-01T03:38:36;98968.16;;;17.24;100.00
8069;BME280;4077;43.702;24.896;2023-08-01T03:41:02;98974.22;;;17.25;100.00
8069;BME280;4077;43.702;24.896;2023-08-01T03:43:29;98972.53;;;17.22;100.00
8069;BME280;4077;43.702;24.896;2023-08-01T03:45:54;98960.41;;;17.19;100.00
8069;BME280;4077;43.702;24.896;2023-08-01T03:48:20;98965.69;;;17.18;100.00
8069;BME280;4077;43.702;24.896;2023-08-01T03:50:45;98967.56;;;17.11;100.00
8069;BME280;4077;43.702;24.896;2023-08-01T03:53:11;98971.91;;;17.12;100.00
8069;BME280;4077;43.702;24.896;2023-08-01T03:55:37;98969.31;;;17.11;100.00
8069;BME280;4077;43.702;24.896;2023-08-01T03:58:02;98972.88;;;17.07;100.00
8069;BME280;4077;43.702;24.896;2023-08-01T04:00:27;98968.56;;;17.06;100.00
8069;BME280;4077;43.702;24.896;2023-08-01T04:03:00;98969.50;;;17.03;100.00
8069;BME280;4077;43.702;24.896;2023-08-01T04:05:27;98972.31;;;16.94;100.00
8069;BME280;4077;43.702;24.896;2023-08-01T04:07:53;98972.34;;;16.92;100.00
8069;BME280;4077;43.702;24.896;2023-08-01T04:10:22;98973.28;;;16.90;100.00
8069;BME280;4077;43.702;24.896;2023-08-01T04:12:47;98976.66;;;16.93;100.00
8069;BME280;4077;43.702;24.896;2023-08-01T04:15:13;98981.06;;;16.91;100.00
8069;BME280;4077;43.702;24.896;2023-08-01T04:17:38;98975.81;;;16.93;100.00
8069;BME280;4077;43.702;24.896;2023-08-01T04:20:04;98952.38;;;16.91;100.00
8069;BME280;4077;43.702;24.896;2023-08-01T04:22:30;98962.69;;;16.98;100.00
8069;BME280;4077;43.702;24.896;2023-08-01T04:24:56;98971.13;;;17.07;100.00
8069;BME280;4077;43.702;24.896;2023-08-01T04:27:21;98970.13;;;17.13;100.00
8069;BME280;4077;43.702;24.896;2023-08-01T04:29:47;98974.31;;;17.20;100.00
8069;BME280;4077;43.702;24.896;2023-08-01T04:32:13;98979.53;;;17.20;100.00
8069;BME280;4077;43.702;24.896;2023-08-01T04:34:40;98975.88;;;17.27;100.00
8069;BME280;4077;43.702;24.896;2023-08-01T04:37:06;98974.84;;;17.34;100.00
8069;BME280;4077;43.702;24.896;2023-08-01T04:39:31;98980.78;;;17.41;100.00
8069;BME280;4077;43.702;24.896;2023-08-01T04:41:57;98974.66;;;17.42;100.00
8069;BME280;4077;43.702;24.896;2023-08-01T04:44:22;98984.03;;;17.50;100.00
8069;BME280;4077;43.702;24.896;2023-08-01T04:46:48;98983.75;;;17.61;100.00
8069;BME280;4077;43.702;24.896;2023-08-01T04:49:14;98981.94;;;17.65;100.00
8069;BME280;4077;43.702;24.896;2023-08-01T04:51:39;99002.50;;;17.77;100.00
8069;BME280;4077;43.702;24.896;2023-08-01T04:54:05;99002.41;;;17.82;100.00
8069;BME280;4077;43.702;24.896;2023-08-01T04:56:31;99013.47;;;17.91;100.00
8069;BME280;4077;43.702;24.896;2023-08-01T04:58:56;99021.88;;;18.02;100.00
8069;BME280;4077;43.702;24.896;2023-08-01T05:01:21;99024.22;;;18.13;100.00
8069;BME280;4077;43.702;24.896;2023-08-01T05:03:47;99019.59;;;18.23;100.00
8069;BME280;4077;43.702;24.896;2023-08-01T05:06:13;99026.28;;;18.33;100.00
8069;BME280;4077;43.702;24.896;2023-08-01T05:08:38;99028.69;;;18.41;100.00
8069;BME280;4077;43.702;24.896;2023-08-01T05:11:04;99027.56;;;18.49;100.00
8069;BME280;4077;43.702;24.896;2023-08-01T05:13:29;99034.13;;;18.64;100.00
8069;BME280;4077;43.702;24.896;2023-08-01T05:15:54;99034.66;;;18.77;100.00
8069;BME280;4077;43.702;24.896;2023-08-01T05:18:20;99035.03;;;18.94;100.00
8069;BME280;4077;43.702;24.896;2023-08-01T05:20:45;99040.72;;;19.07;100.00
8069;BME280;4077;43.702;24.896;2023-08-01T05:23:11;99041.38;;;19.13;100.00
8069;BME280;4077;43.702;24.896;2023-08-01T05:25:36;99042.91;;;19.21;100.00
8069;BME280;4077;43.702;24.896;2023-08-01T05:28:02;99049.59;;;19.31;100.00
8069;BME280;4077;43.702;24.896;2023-08-01T05:30:27;99044.84;;;19.44;100.00
8069;BME280;4077;43.702;24.896;2023-08-01T05:32:53;99041.84;;;19.54;100.00
8069;BME280;4077;43.702;24.896;2023-08-01T05:35:19;99050.47;;;19.59;100.00
8069;BME280;4077;43.702;24.896;2023-08-01T05:37:45;99051.97;;;19.66;100.00
8069;BME280;4077;43.702;24.896;2023-08-01T05:40:11;99063.97;;;19.74;100.00
8069;BME280;4077;43.702;24.896;2023-08-01T05:42:36;99056.69;;;19.82;100.00
8069;BME280;4077;43.702;24.896;2023-08-01T05:45:02;99061.53;;;19.94;100.00
8069;BME280;4077;43.702;24.896;2023-08-01T05:47:29;99068.06;;;20.07;100.00
8069;BME280;4077;43.702;24.896;2023-08-01T05:49:55;99071.50;;;20.09;100.00
8069;BME280;4077;43.702;24.896;2023-08-01T05:52:20;99067.28;;;20.05;100.00
8069;BME280;4077;43.702;24.896;2023-08-01T05:54:46;99064.19;;;20.19;100.00
8069;BME280;4077;43.702;24.896;2023-08-01T05:57:11;99063.66;;;20.34;100.00
8069;BME280;4077;43.702;24.896;2023-08-01T05:59:37;99060.81;;;20.40;100.00
8069;BME280;4077;43.702;24.896;2023-08-01T06:02:02;99071.41;;;20.37;100.00
8069;BME280;4077;43.702;24.896;2023-08-01T06:04:28;99069.91;;;20.30;100.00
8069;BME280;4077;43.702;24.896;2023-08-01T06:06:53;99066.47;;;20.28;100.00
8069;BME280;4077;43.702;24.896;2023-08-01T06:09:19;99072.78;;;20.22;100.00
8069;BME280;4077;43.702;24.896;2023-08-01T06:11:44;99080.28;;;20.58;100.00
8069;BME280;4077;43.702;24.896;2023-08-01T06:14:10;99086.50;;;20.81;100.00
8069;BME280;4077;43.702;24.896;2023-08-01T06:16:35;99088.06;;;20.85;100.00
8069;BME280;4077;43.702;24.896;2023-08-01T06:19:01;99091.53;;;20.87;100.00
8069;BME280;4077;43.702;24.896;2023-08-01T06:21:27;99084.22;;;20.95;100.00
8069;BME280;4077;43.702;24.896;2023-08-01T06:23:53;99091.91;;;20.99;100.00
8069;BME280;4077;43.702;24.896;2023-08-01T06:26:18;99093.47;;;21.27;100.00
8069;BME280;4077;43.702;24.896;2023-08-01T06:28:44;99090.13;;;21.23;100.00
8069;BME280;4077;43.702;24.896;2023-08-01T06:31:09;99090.84;;;21.28;100.00
8069;BME280;4077;43.702;24.896;2023-08-01T06:33:35;99085.41;;;21.33;100.00
8069;BME280;4077;43.702;24.896;2023-08-01T06:36:00;99088.22;;;21.28;100.00
8069;BME280;4077;43.702;24.896;2023-08-01T06:38:25;99090.22;;;21.20;100.00
8069;BME280;4077;43.702;24.896;2023-08-01T06:40:51;99084.41;;;21.12;100.00
8069;BME280;4077;43.702;24.896;2023-08-01T06:43:16;99088.66;;;21.16;100.00
8069;BME280;4077;43.702;24.896;2023-08-01T06:45:42;99091.16;;;21.43;100.00
8069;BME280;4077;43.702;24.896;2023-08-01T06:48:07;99082.25;;;21.69;100.00
8069;BME280;4077;43.702;24.896;2023-08-01T06:50:34;99086.13;;;21.80;100.00
8069;BME280;4077;43.702;24.896;2023-08-01T06:52:59;99080.00;;;22.02;100.00
8069;BME280;4077;43.702;24.896;2023-08-01T06:55:26;99083.66;;;22.40;100.00
8069;BME280;4077;43.702;24.896;2023-08-01T06:57:51;99081.28;;;22.54;100.00
8069;BME280;4077;43.702;24.896;2023-08-01T07:00:17;99073.81;;;22.64;100.00
8069;BME280;4077;43.702;24.896;2023-08-01T07:02:42;99079.88;;;22.86;100.00
8069;BME280;4077;43.702;24.896;2023-08-01T07:05:08;99080.03;;;23.02;100.00
8069;BME280;4077;43.702;24.896;2023-08-01T07:07:33;99078.47;;;23.17;100.00
8069;BME280;4077;43.702;24.896;2023-08-01T07:09:59;99084.13;;;23.45;100.00
8069;BME280;4077;43.702;24.896;2023-08-01T07:12:24;99083.28;;;23.64;100.00
8069;BME280;4077;43.702;24.896;2023-08-01T07:14:50;99077.69;;;23.89;100.00
8069;BME280;4077;43.702;24.896;2023-08-01T07:17:15;99085.84;;;24.19;100.00
8069;BME280;4077;43.702;24.896;2023-08-01T07:19:41;99093.13;;;24.31;100.00
8069;BME280;4077;43.702;24.896;2023-08-01T07:22:06;99102.41;;;24.21;100.00
8069;BME280;4077;43.702;24.896;2023-08-01T07:24:31;99099.47;;;24.27;100.00
8069;BME280;4077;43.702;24.896;2023-08-01T07:26:57;99095.91;;;24.28;100.00
8069;BME280;4077;43.702;24.896;2023-08-01T07:29:22;99101.75;;;24.35;100.00
8069;BME280;4077;43.702;24.896;2023-08-01T07:31:48;99095.63;;;24.34;100.00
8069;BME280;4077;43.702;24.896;2023-08-01T07:34:13;99093.22;;;24.29;100.00
8069;BME280;4077;43.702;24.896;2023-08-01T07:36:39;99083.19;;;24.36;100.00
8069;BME280;4077;43.702;24.896;2023-08-01T07:39:04;99094.97;;;24.64;100.00
8069;BME280;4077;43.702;24.896;2023-08-01T07:41:30;99097.59;;;24.81;100.00
8069;BME280;4077;43.702;24.896;2023-08-01T07:43:55;99098.03;;;24.89;100.00
8069;BME280;4077;43.702;24.896;2023-08-01T07:46:21;99101.09;;;24.97;100.00
8069;BME280;4077;43.702;24.896;2023-08-01T07:48:46;99100.78;;;25.03;100.00
8069;BME280;4077;43.702;24.896;2023-08-01T07:51:12;99098.94;;;25.05;100.00
8069;BME280;4077;43.702;24.896;2023-08-01T07:53:37;99102.66;;;25.01;100.00
8069;BME280;4077;43.702;24.896;2023-08-01T07:56:03;99102.63;;;24.86;100.00
8069;BME280;4077;43.702;24.896;2023-08-01T07:58:29;99097.09;;;24.90;100.00
8069;BME280;4077;43.702;24.896;2023-08-01T08:00:55;99084.41;;;24.97;100.00
8069;BME280;4077;43.702;24.896;2023-08-01T08:03:20;99078.03;;;24.68;100.00
8069;BME280;4077;43.702;24.896;2023-08-01T08:05:49;99084.56;;;24.78;100.00
8069;BME280;4077;43.702;24.896;2023-08-01T08:08:14;99080.66;;;24.85;100.00
8069;BME280;4077;43.702;24.896;2023-08-01T08:10:40;99091.28;;;24.83;100.00
8069;BME280;4077;43.702;24.896;2023-08-01T08:13:05;99080.66;;;24.85;100.00
8069;BME280;4077;43.702;24.896;2023-08-01T08:15:31;99085.19;;;24.99;100.00
8069;BME280;4077;43.702;24.896;2023-08-01T08:18:00;99081.84;;;24.95;100.00
8069;BME280;4077;43.702;24.896;2023-08-01T08:20:29;99080.53;;;25.04;100.00
8069;BME280;4077;43.702;24.896;2023-08-01T08:22:55;99073.06;;;25.12;100.00
8069;BME280;4077;43.702;24.896;2023-08-01T08:25:20;99077.31;;;25.15;100.00
8069;BME280;4077;43.702;24.896;2023-08-01T08:27:45;99081.75;;;24.97;100.00
8069;BME280;4077;43.702;24.896;2023-08-01T08:30:11;99070.19;;;24.99;100.00
8069;BME280;4077;43.702;24.896;2023-08-01T08:32:36;99078.50;;;25.09;100.00
8069;BME280;4077;43.702;24.896;2023-08-01T08:35:02;99079.72;;;25.19;100.00
8069;BME280;4077;43.702;24.896;2023-08-01T08:37:28;99068.38;;;25.33;100.00
8069;BME280;4077;43.702;24.896;2023-08-01T08:39:53;99068.00;;;25.39;100.00
8069;BME280;4077;43.702;24.896;2023-08-01T08:42:19;99064.00;;;25.63;100.00
8069;BME280;4077;43.702;24.896;2023-08-01T08:44:44;99064.28;;;25.75;100.00
8069;BME280;4077;43.702;24.896;2023-08-01T08:47:17;99060.91;;;25.71;100.00
8069;BME280;4077;43.702;24.896;2023-08-01T08:49:44;99067.22;;;25.84;100.00
8069;BME280;4077;43.702;24.896;2023-08-01T08:52:11;99062.44;;;25.91;100.00
8069;BME280;4077;43.702;24.896;2023-08-01T08:54:37;99064.41;;;25.87;100.00
8069;BME280;4077;43.702;24.896;2023-08-01T08:57:07;99055.13;;;25.64;100.00
8069;BME280;4077;43.702;24.896;2023-08-01T08:59:33;99063.25;;;25.61;100.00
8069;BME280;4077;43.702;24.896;2023-08-01T09:01:58;99056.00;;;25.49;100.00
8069;BME280;4077;43.702;24.896;2023-08-01T09:04:27;99052.59;;;25.47;100.00
8069;BME280;4077;43.702;24.896;2023-08-01T09:06:55;99046.47;;;25.47;100.00
8069;BME280;4077;43.702;24.896;2023-08-01T09:09:23;99040.44;;;25.59;100.00
8069;BME280;4077;43.702;24.896;2023-08-01T09:11:52;99044.47;;;25.50;100.00
8069;BME280;4077;43.702;24.896;2023-08-01T09:14:19;99046.84;;;25.71;100.00
8069;BME280;4077;43.702;24.896;2023-08-01T09:16:45;99026.44;;;25.27;100.00
8069;BME280;4077;43.702;24.896;2023-08-01T09:19:20;99035.63;;;25.35;100.00
8069;BME280;4077;43.702;24.896;2023-08-01T09:21:47;99035.19;;;25.43;100.00
8069;BME280;4077;43.702;24.896;2023-08-01T09:24:18;99035.50;;;25.53;100.00
8069;BME280;4077;43.702;24.896;2023-08-01T09:26:45;99037.44;;;25.35;100.00
8069;BME280;4077;43.702;24.896;2023-08-01T09:29:10;99025.22;;;24.85;100.00
8069;BME280;4077;43.702;24.896;2023-08-01T09:31:38;99026.44;;;25.27;100.00
8069;BME280;4077;43.702;24.896;2023-08-01T09:34:06;99025.03;;;25.67;100.00
8069;BME280;4077;43.702;24.896;2023-08-01T09:36:42;99029.50;;;25.97;100.00
8069;BME280;4077;43.702;24.896;2023-08-01T09:39:08;99037.63;;;26.66;100.00
8069;BME280;4077;43.702;24.896;2023-08-01T09:41:33;99041.59;;;27.43;100.00
8069;BME280;4077;43.702;24.896;2023-08-01T09:43:59;99043.97;;;28.15;100.00
8069;BME280;4077;43.702;24.896;2023-08-01T09:46:24;99044.28;;;28.86;97.99
8069;BME280;4077;43.702;24.896;2023-08-01T09:48:50;99058.84;;;29.80;89.31
8069;BME280;4077;43.702;24.896;2023-08-01T09:51:17;99067.16;;;30.57;77.31
8069;BME280;4077;43.702;24.896;2023-08-01T09:53:50;99062.84;;;30.78;76.72
8069;BME280;4077;43.702;24.896;2023-08-01T09:56:23;99054.59;;;30.12;81.50
8069;BME280;4077;43.702;24.896;2023-08-01T09:58:51;99043.72;;;29.56;85.19
8069;BME280;4077;43.702;24.896;2023-08-01T10:01:19;99040.50;;;28.40;89.85
8069;BME280;4077;43.702;24.896;2023-08-01T10:03:50;99026.38;;;27.74;99.70
8069;BME280;4077;43.702;24.896;2023-08-01T10:06:20;99013.94;;;27.20;100.00
8069;BME280;4077;43.702;24.896;2023-08-01T10:08:47;99005.31;;;27.03;100.00
8069;BME280;4077;43.702;24.896;2023-08-01T10:11:15;99011.50;;;26.89;100.00
8069;BME280;4077;43.702;24.896;2023-08-01T10:13:42;99004.88;;;26.96;100.00
8069;BME280;4077;43.702;24.896;2023-08-01T10:16:08;99003.00;;;27.12;100.00
8069;BME280;4077;43.702;24.896;2023-08-01T10:18:34;99003.84;;;27.40;100.00
8069;BME280;4077;43.702;24.896;2023-08-01T10:21:03;98999.63;;;27.50;100.00
8069;BME280;4077;43.702;24.896;2023-08-01T10:23:30;98990.53;;;27.54;100.00
8069;BME280;4077;43.702;24.896;2023-08-01T10:25:56;98994.53;;;27.47;100.00
8069;BME280;4077;43.702;24.896;2023-08-01T10:31:08;98981.91;;;27.50;100.00
8069;BME280;4077;43.702;24.896;2023-08-01T10:33:34;98986.47;;;27.48;100.00
8069;BME280;4077;43.702;24.896;2023-08-01T10:35:59;98977.19;;;27.29;100.00
8069;BME280;4077;43.702;24.896;2023-08-01T10:38:25;98966.91;;;27.37;100.00
8069;BME280;4077;43.702;24.896;2023-08-01T10:40:50;98962.28;;;27.40;100.00
8069;BME280;4077;43.702;24.896;2023-08-01T10:43:21;98971.00;;;27.55;100.00
8069;BME280;4077;43.702;24.896;2023-08-01T10:45:46;98970.19;;;27.67;100.00
8069;BME280;4077;43.702;24.896;2023-08-01T10:48:12;98967.19;;;27.73;100.00
8069;BME280;4077;43.702;24.896;2023-08-01T10:50:39;98962.38;;;27.78;100.00
8069;BME280;4077;43.702;24.896;2023-08-01T10:53:06;98947.31;;;27.79;100.00
8069;BME280;4077;43.702;24.896;2023-08-01T10:55:45;98947.75;;;27.86;100.00
8069;BME280;4077;43.702;24.896;2023-08-01T10:58:12;98952.44;;;27.95;100.00
8069;BME280;4077;43.702;24.896;2023-08-01T11:00:38;98941.28;;;27.77;100.00
8069;BME280;4077;43.702;24.896;2023-08-01T11:03:03;98941.38;;;27.75;99.77
8069;BME280;4077;43.702;24.896;2023-08-01T11:05:29;98940.56;;;27.88;99.40
8069;BME280;4077;43.702;24.896;2023-08-01T11:07:56;98938.63;;;27.90;100.00
8069;BME280;4077;43.702;24.896;2023-08-01T11:10:24;98938.66;;;28.02;100.00
8069;BME280;4077;43.702;24.896;2023-08-01T11:12:50;98935.88;;;28.04;97.31
8069;BME280;4077;43.702;24.896;2023-08-01T11:15:15;98932.38;;;28.03;95.03
8069;BME280;4077;43.702;24.896;2023-08-01T11:17:46;98930.16;;;28.10;94.79
8069;BME280;4077;43.702;24.896;2023-08-01T11:20:12;98928.47;;;28.09;94.94
8069;BME280;4077;43.702;24.896;2023-08-01T11:22:48;98926.41;;;28.25;92.38
8069;BME280;4077;43.702;24.896;2023-08-01T11:25:14;98912.72;;;28.44;90.92
8069;BME280;4077;43.702;24.896;2023-08-01T11:27:40;98925.44;;;28.65;85.35
8069;BME280;4077;43.702;24.896;2023-08-01T11:30:06;98921.78;;;28.78;85.55
8069;BME280;4077;43.702;24.896;2023-08-01T11:32:36;98909.69;;;28.61;84.28
8069;BME280;4077;43.702;24.896;2023-08-01T11:35:02;98908.84;;;28.61;88.60
8069;BME280;4077;43.702;24.896;2023-08-01T11:37:28;98909.19;;;28.69;83.69
8069;BME280;4077;43.702;24.896;2023-08-01T11:39:54;98912.16;;;28.88;84.11
8069;BME280;4077;43.702;24.896;2023-08-01T11:42:20;98916.47;;;28.91;81.74
8069;BME280;4077;43.702;24.896;2023-08-01T11:44:45;98907.81;;;28.87;83.10
8069;BME280;4077;43.702;24.896;2023-08-01T11:47:12;98909.91;;;28.71;86.35
8069;BME280;4077;43.702;24.896;2023-08-01T11:49:38;98911.28;;;28.77;81.52
8069;BME280;4077;43.702;24.896;2023-08-01T11:52:04;98901.22;;;28.69;84.31
8069;BME280;4077;43.702;24.896;2023-08-01T11:54:30;98899.63;;;28.54;79.60
8069;BME280;4077;43.702;24.896;2023-08-01T11:57:00;98902.91;;;28.70;80.89
8069;BME280;4077;43.702;24.896;2023-08-01T11:59:26;98895.03;;;28.69;82.50
8069;BME280;4077;43.702;24.896;2023-08-01T12:01:51;98884.06;;;28.49;79.99
8069;BME280;4077;43.702;24.896;2023-08-01T12:04:24;98892.00;;;28.62;77.82
8069;BME280;4077;43.702;24.896;2023-08-01T12:06:50;98882.53;;;28.58;75.91
8069;BME280;4077;43.702;24.896;2023-08-01T12:09:16;98879.47;;;28.51;76.02
8069;BME280;4077;43.702;24.896;2023-08-01T12:11:41;98878.31;;;28.55;74.29
8069;BME280;4077;43.702;24.896;2023-08-01T12:14:16;98876.69;;;28.53;75.12
8069;BME280;4077;43.702;24.896;2023-08-01T12:16:43;98871.63;;;28.50;83.63
8069;BME280;4077;43.702;24.896;2023-08-01T12:19:19;98882.72;;;28.55;77.01
8069;BME280;4077;43.702;24.896;2023-08-01T12:21:45;98868.72;;;28.53;80.93
8069;BME280;4077;43.702;24.896;2023-08-01T12:24:11;98866.50;;;28.47;75.76
8069;BME280;4077;43.702;24.896;2023-08-01T12:26:36;98866.63;;;28.45;76.45
8069;BME280;4077;43.702;24.896;2023-08-01T12:29:02;98866.31;;;28.50;79.42
8069;BME280;4077;43.702;24.896;2023-08-01T12:31:28;98861.31;;;28.45;77.87
8069;BME280;4077;43.702;24.896;2023-08-01T12:33:53;98853.47;;;28.44;77.43
8069;BME280;4077;43.702;24.896;2023-08-01T12:36:19;98846.47;;;28.30;79.06
8069;BME280;4077;43.702;24.896;2023-08-01T12:38:45;98845.09;;;28.24;79.95
8069;BME280;4077;43.702;24.896;2023-08-01T12:41:10;98842.22;;;28.27;77.78
8069;BME280;4077;43.702;24.896;2023-08-01T12:43:36;98839.47;;;28.29;79.50
8069;BME280;4077;43.702;24.896;2023-08-01T12:46:01;98840.09;;;28.20;79.40
8069;BME280;4077;43.702;24.896;2023-08-01T12:48:28;98830.34;;;28.20;77.52
8069;BME280;4077;43.702;24.896;2023-08-01T12:50:54;98833.75;;;28.22;79.31
8069;BME280;4077;43.702;24.896;2023-08-01T12:53:25;98830.75;;;28.27;77.15
8069;BME280;4077;43.702;24.896;2023-08-01T12:55:51;98836.72;;;28.30;74.77
8069;BME280;4077;43.702;24.896;2023-08-01T12:58:17;98831.50;;;28.29;75.12
8069;BME280;4077;43.702;24.896;2023-08-01T13:00:43;98828.44;;;28.22;73.56